PAKW

Details ICAO PAKW (KLW)
Name KLAWOCK
Region USA (Alaska)
Timezone Unknown (UTC+0.0)
Plans Departing 12
Arriving 12
Stats Elevation 80 ft / 24 m (AMSL)
Location 55.579232° -133.075997°
Runways 1
Magnetic Variation 18.443° E
Sunrise 2018-05-20 12:34:08 UTC / 2018-05-20 12:34:08 Local
Sunset 2018-05-21 05:06:25 UTC / 2018-05-21 05:06:25 Local
Advertisement - Login to hide

Runways

ID Width Length Bearing (true) Bearing (mag) Surface Threshold Offset Overrun Length
02 100 ft / 30 m 4,991 ft / 1,521 m 39.06° 20.62° Asphalt 0 ft / 0 m 0 ft / 0 m
20 100 ft / 30 m 4,991 ft / 1,521 m 219.07° 200.63° Asphalt 0 ft / 0 m 0 ft / 0 m

Map

Weather


0- 5 10 15 20 25 30 35+ Temperature / ° C

Clouds and Precipitation
Forecast for 2018-05-20 18:00 UTC. Updated an hour ago

Ground ~20,000 ft ~40,000 ft Winds

METAR

PAKW 201753Z AUTO 17011KT 10SM SCT022 BKN050 OVC065 11/08 A2988 RMK AO2 SLP117 T01110083 10111 20072 51003 TSNO

TAF

PAKW 201726Z 2018/2118 VRB04KT P6SM VCSH BKN015 OVC025 FM202100 18008KT P6SM -RA BKN015 OVC030 FM210300 19003KT 6SM -RA BR BKN015 OVC025 FM211200 12009KT 5SM -RA BR OVC015 WS020/16040KT AMD LTD TO CLD VIS AND WIND

Frequencies

Recorded 135.45 MHz ASOS
Unicom 120.90 MHz CTAF
Warning: Do not use this data for real-world aviation or navigation. No guarantee of current accuracy is given.